createdAt,value
2024-02-02T00:01:52.072Z,4.95
2024-02-02T00:04:20.159Z,4.96
2024-02-02T00:06:48.166Z,4.99
2024-02-02T00:09:17.630Z,4.98
2024-02-02T00:11:45.572Z,4.97
2024-02-02T00:14:13.616Z,4.98
2024-02-02T00:16:41.512Z,4.98
2024-02-02T00:19:09.689Z,4.99
2024-02-02T00:21:37.657Z,4.99
2024-02-02T00:24:05.879Z,5.01
2024-02-02T00:26:35.455Z,5.01
2024-02-02T00:29:04.055Z,5.00
2024-02-02T00:31:31.966Z,5.02
2024-02-02T00:34:00.057Z,5.05
2024-02-02T00:36:28.047Z,5.07
2024-02-02T00:38:56.035Z,5.09
2024-02-02T00:41:23.987Z,5.12
2024-02-02T00:43:53.240Z,5.13
2024-02-02T00:46:21.176Z,5.16
2024-02-02T00:48:49.142Z,5.18
2024-02-02T00:51:17.145Z,5.21
2024-02-02T00:53:45.041Z,5.21
2024-02-02T00:56:12.967Z,5.23
2024-02-02T00:58:40.993Z,5.25
2024-02-02T01:01:10.336Z,5.25
2024-02-02T01:03:38.936Z,5.27
2024-02-02T01:06:07.234Z,5.28
2024-02-02T01:08:35.259Z,5.31
2024-02-02T01:11:04.021Z,5.30
2024-02-02T01:13:32.159Z,5.31
2024-02-02T01:16:00.071Z,5.32
2024-02-02T01:18:29.452Z,5.33
2024-02-02T01:20:57.598Z,5.35
2024-02-02T01:23:25.759Z,5.37
2024-02-02T01:25:53.646Z,5.39
2024-02-02T01:28:21.571Z,5.41
2024-02-02T01:30:49.497Z,5.42
2024-02-02T01:33:17.584Z,5.41
2024-02-02T01:35:46.922Z,5.42
2024-02-02T01:38:14.983Z,5.43
2024-02-02T01:40:43.411Z,5.44
2024-02-02T01:43:11.448Z,5.44
2024-02-02T01:45:39.738Z,5.44
2024-02-02T01:48:10.114Z,5.46
2024-02-02T01:50:38.637Z,5.47
2024-02-02T01:53:08.057Z,5.49
2024-02-02T01:55:36.207Z,5.49
2024-02-02T01:58:04.564Z,5.49
2024-02-02T02:00:32.892Z,5.50
2024-02-02T02:03:01.104Z,5.49
2024-02-02T02:05:29.178Z,5.51
2024-02-02T02:07:57.198Z,5.52
2024-02-02T02:10:26.607Z,5.51
2024-02-02T02:12:54.504Z,5.54
2024-02-02T02:15:24.697Z,5.55
2024-02-02T02:17:53.692Z,5.56
2024-02-02T02:20:23.947Z,5.55
2024-02-02T02:22:53.510Z,5.55
2024-02-02T02:25:21.498Z,5.53
2024-02-02T02:27:49.752Z,5.54
2024-02-02T02:30:18.184Z,5.54
2024-02-02T02:32:46.281Z,5.52
2024-02-02T02:35:14.298Z,5.52
2024-02-02T02:37:42.240Z,5.50
2024-02-02T02:40:12.574Z,5.49
2024-02-02T02:42:41.019Z,5.48
2024-02-02T02:45:09.411Z,5.47
2024-02-02T02:47:38.197Z,5.45
2024-02-02T02:50:07.454Z,5.44
2024-02-02T02:52:35.341Z,5.43
2024-02-02T02:55:03.429Z,5.43
2024-02-02T02:57:32.883Z,5.43
2024-02-02T03:00:00.992Z,5.41
2024-02-02T03:02:29.027Z,5.43
2024-02-02T03:04:57.011Z,5.40
2024-02-02T03:07:25.278Z,5.38
2024-02-02T03:09:53.163Z,5.39
2024-02-02T03:12:21.109Z,5.35
2024-02-02T03:14:50.547Z,5.34
2024-02-02T03:17:18.494Z,5.32
2024-02-02T03:19:46.477Z,5.27
2024-02-02T03:22:14.398Z,5.25
2024-02-02T03:24:42.365Z,5.25
2024-02-02T03:27:10.333Z,5.25
2024-02-02T03:29:38.329Z,5.26
2024-02-02T03:32:08.222Z,5.24
2024-02-02T03:34:36.294Z,5.23
2024-02-02T03:37:04.263Z,5.21
2024-02-02T03:39:32.261Z,5.18
2024-02-02T03:42:00.209Z,5.18
2024-02-02T03:44:28.168Z,5.16
2024-02-02T03:46:56.129Z,5.15
2024-02-02T03:49:25.507Z,5.16
2024-02-02T03:51:53.484Z,5.17
2024-02-02T03:54:21.508Z,5.15
2024-02-02T03:56:49.471Z,5.14
2024-02-02T03:59:17.731Z,5.14
2024-02-02T04:01:45.783Z,5.17
2024-02-02T04:04:13.899Z,5.18
2024-02-02T04:06:43.273Z,5.19
2024-02-02T04:09:11.503Z,5.20
2024-02-02T04:11:39.617Z,5.21
2024-02-02T04:14:07.891Z,5.23
2024-02-02T04:16:35.779Z,5.23
2024-02-02T04:19:03.963Z,5.23
2024-02-02T04:21:32.034Z,5.22
2024-02-02T04:24:01.407Z,5.22
2024-02-02T04:26:29.322Z,5.22
2024-02-02T04:28:57.253Z,5.21
2024-02-02T04:31:25.473Z,5.20
2024-02-02T04:33:53.542Z,5.20
2024-02-02T04:36:21.598Z,5.19
2024-02-02T04:38:49.537Z,5.20
2024-02-02T04:41:18.846Z,5.17
2024-02-02T04:43:46.767Z,5.18
2024-02-02T04:46:14.803Z,5.17
2024-02-02T04:48:42.789Z,5.16
2024-02-02T04:51:10.850Z,5.17
2024-02-02T04:53:38.782Z,5.17
2024-02-02T04:56:07.074Z,5.18
2024-02-02T04:58:36.368Z,5.17
2024-02-02T05:01:04.625Z,5.18
2024-02-02T05:03:33.294Z,5.19
2024-02-02T05:06:01.429Z,5.18
2024-02-02T05:08:29.558Z,5.18
2024-02-02T05:10:57.499Z,5.17
2024-02-02T05:13:25.466Z,5.15
2024-02-02T05:15:54.750Z,5.14
2024-02-02T05:18:22.794Z,5.13
2024-02-02T05:20:51.128Z,5.13
2024-02-02T05:23:19.093Z,5.10
2024-02-02T05:25:47.057Z,5.08
2024-02-02T05:28:15.180Z,5.07
2024-02-02T05:30:43.245Z,5.06
2024-02-02T05:33:12.667Z,5.06
2024-02-02T05:35:40.669Z,5.04
2024-02-02T05:38:08.653Z,5.03
2024-02-02T05:40:36.532Z,5.03
2024-02-02T05:43:04.568Z,5.02
2024-02-02T05:45:32.524Z,5.01
2024-02-02T05:48:00.542Z,5.01
2024-02-02T05:50:29.928Z,5.00
2024-02-02T05:52:57.879Z,4.99
2024-02-02T05:55:25.789Z,4.99
2024-02-02T05:57:53.693Z,5.00
2024-02-02T06:00:21.815Z,5.01
2024-02-02T06:02:49.896Z,4.99
2024-02-02T06:05:17.785Z,5.00
2024-02-02T06:07:47.110Z,5.01
2024-02-02T06:10:15.247Z,4.99
2024-02-02T06:12:43.246Z,5.00
2024-02-02T06:15:11.545Z,4.99
2024-02-02T06:17:39.570Z,5.01
2024-02-02T06:20:08.923Z,4.99
2024-02-02T06:22:36.966Z,5.00
2024-02-02T06:25:07.017Z,5.01
2024-02-02T06:27:35.094Z,5.01
2024-02-02T06:30:04.950Z,5.00
2024-02-02T06:32:33.394Z,5.01
2024-02-02T06:35:01.635Z,5.02
2024-02-02T06:37:30.095Z,5.01
2024-02-02T06:39:58.849Z,5.02
2024-02-02T06:42:28.268Z,5.02
2024-02-02T06:44:58.346Z,5.02
2024-02-02T06:47:26.445Z,5.01
2024-02-02T06:49:54.528Z,5.02
2024-02-02T06:52:22.889Z,5.02
2024-02-02T06:54:50.992Z,5.03
2024-02-02T06:57:19.450Z,5.03
2024-02-02T06:59:50.827Z,5.03
2024-02-02T07:02:20.848Z,5.05
2024-02-02T07:04:49.519Z,5.05
2024-02-02T07:07:17.697Z,5.05
2024-02-02T07:09:52.490Z,5.06
2024-02-02T07:12:58.246Z,5.07
2024-02-02T07:15:29.683Z,5.07
2024-02-02T07:17:59.129Z,5.07
2024-02-02T07:21:02.408Z,5.08
2024-02-02T07:23:35.472Z,5.13
2024-02-02T07:26:07.016Z,5.12
2024-02-02T07:28:40.262Z,5.10
2024-02-02T07:31:10.563Z,5.11
2024-02-02T07:33:42.057Z,5.11
2024-02-02T07:36:13.806Z,5.10
2024-02-02T07:38:50.291Z,5.11
2024-02-02T07:41:19.736Z,5.11
2024-02-02T07:43:48.990Z,5.11
2024-02-02T07:46:18.914Z,5.13
2024-02-02T07:48:48.216Z,5.15
2024-02-02T07:51:19.120Z,5.18
2024-02-02T07:53:48.012Z,5.18
2024-02-02T07:56:16.704Z,5.19
2024-02-02T07:58:44.624Z,5.23
2024-02-02T08:01:12.994Z,5.26
2024-02-02T08:03:42.555Z,5.28
2024-02-02T08:06:10.680Z,5.29
2024-02-02T08:08:38.843Z,5.32
2024-02-02T08:11:06.830Z,5.34
2024-02-02T08:13:34.888Z,5.37
2024-02-02T08:16:02.833Z,5.37
2024-02-02T08:18:32.034Z,5.42
2024-02-02T08:21:02.163Z,5.43
2024-02-02T08:23:30.347Z,5.46
2024-02-02T08:25:58.340Z,5.50
2024-02-02T08:28:26.346Z,5.54
2024-02-02T08:30:54.539Z,5.59
2024-02-02T08:33:22.655Z,5.61
2024-02-02T08:35:50.600Z,5.64
2024-02-02T08:38:20.159Z,5.66
2024-02-02T08:40:49.351Z,5.70
2024-02-02T08:43:20.522Z,5.75
2024-02-02T08:46:14.078Z,5.80
2024-02-02T08:48:45.746Z,5.84
2024-02-02T08:51:53.809Z,5.90
2024-02-02T08:54:37.931Z,5.95
2024-02-02T08:57:31.986Z,6.00
2024-02-02T09:00:06.200Z,6.05
2024-02-02T09:02:53.622Z,6.11
2024-02-02T09:05:24.053Z,6.15
2024-02-02T09:07:54.059Z,6.20
2024-02-02T09:11:22.442Z,6.22
2024-02-02T09:13:59.307Z,6.27
2024-02-02T09:16:39.136Z,6.31
2024-02-02T09:19:16.672Z,6.36
2024-02-02T09:21:44.599Z,6.38
2024-02-02T09:24:18.941Z,6.42
2024-02-02T09:26:48.282Z,6.47
2024-02-02T09:29:16.153Z,6.49
2024-02-02T09:31:44.124Z,6.53
2024-02-02T09:34:21.427Z,6.55
2024-02-02T09:36:49.509Z,6.59
2024-02-02T09:39:50.319Z,6.62
2024-02-02T09:42:36.934Z,6.66
2024-02-02T09:45:08.924Z,6.67
2024-02-02T09:47:56.554Z,6.71
2024-02-02T09:50:44.726Z,6.74
2024-02-02T09:53:29.603Z,6.76
2024-02-02T09:56:06.992Z,6.81
2024-02-02T09:58:40.693Z,6.82
2024-02-02T10:01:23.966Z,6.85
2024-02-02T10:04:03.330Z,6.89
2024-02-02T10:06:45.055Z,6.94
2024-02-02T10:09:29.734Z,6.94
2024-02-02T10:12:21.047Z,6.98
2024-02-02T10:15:24.362Z,7.02
2024-02-02T10:18:08.014Z,7.06
2024-02-02T10:20:43.380Z,7.10
2024-02-02T10:23:45.423Z,7.14
2024-02-02T10:26:51.173Z,7.20
2024-02-02T10:29:28.971Z,7.26
2024-02-02T10:32:16.401Z,7.30
2024-02-02T10:34:58.302Z,7.39
2024-02-02T10:37:35.832Z,7.46
2024-02-02T10:40:20.217Z,7.48
2024-02-02T10:43:10.361Z,7.52
2024-02-02T10:45:44.138Z,7.56
2024-02-02T10:48:32.806Z,7.64
2024-02-02T10:51:14.187Z,7.67
2024-02-02T10:53:56.529Z,7.69
2024-02-02T10:56:35.221Z,7.76
2024-02-02T10:59:16.023Z,7.79
2024-02-02T11:01:54.932Z,7.81
2024-02-02T11:04:32.796Z,7.87
2024-02-02T11:07:13.860Z,7.90
2024-02-02T11:09:53.820Z,7.95
2024-02-02T11:12:31.270Z,7.98
2024-02-02T11:15:10.692Z,8.03
2024-02-02T11:17:51.340Z,8.05
2024-02-02T11:20:33.953Z,8.08
2024-02-02T11:23:07.958Z,8.07
2024-02-02T11:25:42.278Z,8.08
2024-02-02T11:28:18.210Z,8.09
2024-02-02T11:30:59.010Z,8.12
2024-02-02T11:33:43.861Z,8.16
2024-02-02T11:36:25.946Z,8.14
2024-02-02T11:39:08.181Z,8.13
2024-02-02T11:41:38.384Z,8.15
2024-02-02T11:44:07.523Z,8.13
2024-02-02T11:46:37.230Z,8.12
2024-02-02T11:49:10.503Z,8.09
2024-02-02T11:51:47.314Z,8.07
2024-02-02T11:54:20.790Z,8.07
2024-02-02T11:56:52.494Z,8.04
2024-02-02T11:59:27.398Z,7.99
2024-02-02T12:02:06.484Z,7.96
2024-02-02T12:04:39.499Z,7.97
2024-02-02T12:07:21.098Z,7.97
2024-02-02T12:09:52.404Z,7.96
2024-02-02T12:12:23.680Z,7.95
2024-02-02T12:14:52.719Z,7.98
2024-02-02T12:17:22.227Z,8.00
2024-02-02T12:19:50.476Z,7.99
2024-02-02T12:22:20.347Z,8.00
2024-02-02T12:24:48.398Z,8.03
2024-02-02T12:27:16.748Z,8.04
2024-02-02T12:29:45.615Z,8.06
2024-02-02T12:32:14.427Z,8.08
2024-02-02T12:34:42.851Z,8.12
2024-02-02T12:37:11.248Z,8.15
2024-02-02T12:39:40.734Z,8.17
2024-02-02T12:42:09.197Z,8.21
2024-02-02T12:44:37.209Z,8.21
2024-02-02T12:47:07.809Z,8.24
2024-02-02T12:49:38.195Z,8.25
2024-02-02T12:52:07.713Z,8.27
2024-02-02T12:54:35.964Z,8.28
2024-02-02T12:57:06.220Z,8.27
2024-02-02T12:59:34.264Z,8.29
2024-02-02T13:02:02.241Z,8.32
2024-02-02T13:04:30.383Z,8.34
2024-02-02T13:06:58.547Z,8.34
2024-02-02T13:09:30.544Z,8.35
2024-02-02T13:12:00.143Z,8.34
2024-02-02T13:14:30.005Z,8.37
2024-02-02T13:17:10.800Z,8.36
2024-02-02T13:19:43.126Z,8.39
2024-02-02T13:22:20.322Z,8.40
2024-02-02T13:24:50.056Z,8.41
2024-02-02T13:27:19.656Z,8.45
2024-02-02T13:29:53.720Z,8.45
2024-02-02T13:32:22.779Z,8.45
2024-02-02T13:34:51.107Z,8.49
2024-02-02T13:37:30.503Z,8.47
2024-02-02T13:40:00.185Z,8.50
2024-02-02T13:42:29.650Z,8.52
2024-02-02T13:45:08.530Z,8.54
2024-02-02T13:47:37.685Z,8.57
2024-02-02T13:50:16.846Z,8.57
2024-02-02T13:52:50.133Z,8.58
2024-02-02T13:55:19.865Z,8.61
2024-02-02T13:57:49.460Z,8.65
2024-02-02T14:00:20.426Z,8.67
2024-02-02T14:02:48.500Z,8.68
2024-02-02T14:05:16.525Z,8.67
2024-02-02T14:07:54.949Z,8.69
2024-02-02T14:10:23.544Z,8.71
2024-02-02T14:12:51.741Z,8.74
2024-02-02T14:15:21.790Z,8.72
2024-02-02T14:17:49.761Z,8.72
2024-02-02T14:20:17.714Z,8.72
2024-02-02T14:22:46.058Z,8.72
2024-02-02T14:25:14.028Z,8.71
2024-02-02T14:27:42.983Z,8.72
2024-02-02T14:30:22.737Z,8.72
2024-02-02T14:32:56.188Z,8.69
2024-02-02T14:35:29.026Z,8.67
2024-02-02T14:37:57.003Z,8.66
2024-02-02T14:40:24.952Z,8.65
2024-02-02T14:42:52.866Z,8.64
2024-02-02T14:45:22.211Z,8.65
2024-02-02T14:47:50.213Z,8.63
2024-02-02T14:50:18.813Z,8.62
2024-02-02T14:52:46.771Z,8.62
2024-02-02T14:55:14.801Z,8.61
2024-02-02T14:57:43.385Z,8.60
2024-02-02T15:00:20.033Z,8.61
2024-02-02T15:02:50.947Z,8.58
2024-02-02T15:05:18.909Z,8.57
2024-02-02T15:07:46.922Z,8.57
2024-02-02T15:10:14.888Z,8.53
2024-02-02T15:12:43.602Z,8.53
2024-02-02T15:15:11.906Z,8.52
2024-02-02T15:17:40.096Z,8.52
2024-02-02T15:20:11.584Z,8.50
2024-02-02T15:22:39.933Z,8.50
2024-02-02T15:25:09.516Z,8.49
2024-02-02T15:27:39.275Z,8.48
2024-02-02T15:30:08.882Z,8.48
2024-02-02T15:32:36.838Z,8.43
2024-02-02T15:35:05.285Z,8.43
2024-02-02T15:37:34.602Z,8.43
2024-02-02T15:40:02.697Z,8.37
2024-02-02T15:42:34.234Z,8.38
2024-02-02T15:45:06.073Z,8.36
2024-02-02T15:47:35.392Z,8.35
2024-02-02T15:50:03.920Z,8.35
2024-02-02T15:52:32.054Z,8.32
2024-02-02T15:55:04.457Z,8.33
2024-02-02T15:57:32.757Z,8.32
2024-02-02T16:00:00.871Z,8.34
2024-02-02T16:02:28.828Z,8.33
2024-02-02T16:04:59.524Z,8.33
2024-02-02T16:07:27.636Z,8.34
2024-02-02T16:09:57.407Z,8.34
2024-02-02T16:12:26.759Z,8.34
2024-02-02T16:14:54.734Z,8.35
2024-02-02T16:17:22.752Z,8.35
2024-02-02T16:19:52.807Z,8.36
2024-02-02T16:22:22.779Z,8.36
2024-02-02T16:24:50.845Z,8.36
2024-02-02T16:27:19.131Z,8.36
2024-02-02T16:29:48.432Z,8.37
2024-02-02T16:32:16.372Z,8.37
2024-02-02T16:34:44.536Z,8.40
2024-02-02T16:37:12.540Z,8.40
2024-02-02T16:39:40.530Z,8.40
2024-02-02T16:42:08.520Z,8.40
2024-02-02T16:44:36.423Z,8.39
2024-02-02T16:47:05.857Z,8.39
2024-02-02T16:49:34.038Z,8.38
2024-02-02T16:52:03.466Z,8.37
2024-02-02T16:54:32.513Z,8.37
2024-02-02T16:57:00.640Z,8.36
2024-02-02T16:59:28.668Z,8.34
2024-02-02T17:01:56.556Z,8.32
2024-02-02T17:04:26.183Z,8.32
2024-02-02T17:06:54.294Z,8.31
2024-02-02T17:09:22.275Z,8.30
2024-02-02T17:11:50.170Z,8.30
2024-02-02T17:14:18.095Z,8.31
2024-02-02T17:16:46.061Z,8.29
2024-02-02T17:19:14.203Z,8.29
2024-02-02T17:21:44.200Z,8.31
2024-02-02T17:24:12.163Z,8.29
2024-02-02T17:26:40.859Z,8.29
2024-02-02T17:29:15.176Z,8.29
2024-02-02T17:31:47.453Z,8.28
2024-02-02T17:34:16.334Z,8.27
2024-02-02T17:36:46.223Z,8.28
2024-02-02T17:39:14.370Z,8.29
2024-02-02T17:41:42.400Z,8.29
2024-02-02T17:44:10.306Z,8.29
2024-02-02T17:46:38.363Z,8.28
2024-02-02T17:49:06.384Z,8.28
2024-02-02T17:51:34.468Z,8.28
2024-02-02T17:54:03.950Z,8.29
2024-02-02T17:56:31.935Z,8.30
2024-02-02T17:58:59.956Z,8.31
2024-02-02T18:01:28.017Z,8.31
2024-02-02T18:03:56.000Z,8.31
2024-02-02T18:06:24.190Z,8.31
2024-02-02T18:08:52.148Z,8.31
2024-02-02T18:11:21.416Z,8.33
2024-02-02T18:13:49.691Z,8.32
2024-02-02T18:16:17.880Z,8.33
2024-02-02T18:18:46.896Z,8.33
2024-02-02T18:21:15.277Z,8.33
2024-02-02T18:23:43.249Z,8.31
2024-02-02T18:26:11.210Z,8.31
2024-02-02T18:28:40.536Z,8.30
2024-02-02T18:31:08.454Z,8.30
2024-02-02T18:33:36.660Z,8.30
2024-02-02T18:36:05.054Z,8.30
2024-02-02T18:38:33.984Z,8.29
2024-02-02T18:41:01.944Z,8.29
2024-02-02T18:43:29.870Z,8.29
2024-02-02T18:45:59.134Z,8.28
2024-02-02T18:48:27.254Z,8.29
2024-02-02T18:50:55.250Z,8.29
2024-02-02T18:53:23.174Z,8.29
2024-02-02T18:55:53.150Z,8.30
2024-02-02T18:58:26.267Z,8.31
2024-02-02T19:01:01.298Z,8.31
2024-02-02T19:03:29.374Z,8.34
2024-02-02T19:06:00.664Z,8.34
2024-02-02T19:08:28.639Z,8.34
2024-02-02T19:10:56.657Z,8.36
2024-02-02T19:13:24.684Z,8.35
2024-02-02T19:15:52.663Z,8.36
2024-02-02T19:18:22.080Z,8.37
2024-02-02T19:20:50.050Z,8.39
2024-02-02T19:23:17.953Z,8.38
2024-02-02T19:25:45.867Z,8.39
2024-02-02T19:28:13.748Z,8.41
2024-02-02T19:30:43.052Z,8.40
2024-02-02T19:33:11.179Z,8.40
2024-02-02T19:35:40.708Z,8.41
2024-02-02T19:38:08.787Z,8.41
2024-02-02T19:40:36.876Z,8.41
2024-02-02T19:43:05.154Z,8.40
2024-02-02T19:45:33.095Z,8.41
2024-02-02T19:48:01.231Z,8.42
2024-02-02T19:50:29.217Z,8.42
2024-02-02T19:52:58.971Z,8.42
2024-02-02T19:55:28.670Z,8.42
2024-02-02T19:57:56.617Z,8.43
2024-02-02T20:00:24.854Z,8.43
2024-02-02T20:02:53.077Z,8.43
2024-02-02T20:05:24.176Z,8.42
2024-02-02T20:07:53.724Z,8.41
2024-02-02T20:10:24.191Z,8.38
2024-02-02T20:12:52.207Z,8.32
2024-02-02T20:15:20.197Z,8.32
2024-02-02T20:17:48.185Z,8.29
2024-02-02T20:20:16.484Z,8.28
2024-02-02T20:22:44.718Z,8.24
2024-02-02T20:25:12.807Z,8.22
2024-02-02T20:27:42.160Z,8.21
2024-02-02T20:30:11.486Z,8.19
2024-02-02T20:32:39.603Z,8.18
2024-02-02T20:35:08.101Z,8.18
2024-02-02T20:37:36.097Z,8.15
2024-02-02T20:40:05.838Z,8.17
2024-02-02T20:42:33.806Z,8.17
2024-02-02T20:45:05.656Z,8.20
2024-02-02T20:47:34.171Z,8.19
2024-02-02T20:50:02.196Z,8.21
2024-02-02T20:52:30.176Z,8.22
2024-02-02T20:55:00.197Z,8.22
2024-02-02T20:57:28.204Z,8.24
2024-02-02T20:59:56.327Z,8.24
2024-02-02T21:02:25.619Z,8.23
2024-02-02T21:04:53.675Z,8.23
2024-02-02T21:07:21.800Z,8.23
2024-02-02T21:09:50.020Z,8.24
2024-02-02T21:12:18.022Z,8.24
2024-02-02T21:14:49.396Z,8.25
2024-02-02T21:17:18.174Z,8.27
2024-02-02T21:19:47.500Z,8.25
2024-02-02T21:22:15.586Z,8.28
2024-02-02T21:24:43.607Z,8.27
2024-02-02T21:27:11.879Z,8.28
2024-02-02T21:29:39.785Z,8.28
2024-02-02T21:32:07.926Z,8.29
2024-02-02T21:34:35.996Z,8.30
2024-02-02T21:37:05.845Z,8.31
2024-02-02T21:39:33.800Z,8.32
2024-02-02T21:42:01.861Z,8.33
2024-02-02T21:44:29.874Z,8.35
2024-02-02T21:46:59.515Z,8.36
2024-02-02T21:49:27.648Z,8.40
2024-02-02T21:51:55.931Z,8.41
2024-02-02T21:54:25.242Z,8.44
2024-02-02T21:56:53.767Z,8.45
2024-02-02T21:59:21.681Z,8.48
2024-02-02T22:01:49.558Z,8.50
2024-02-02T22:04:18.697Z,8.51
2024-02-02T22:06:47.256Z,8.52
2024-02-02T22:09:15.373Z,8.55
2024-02-02T22:11:44.881Z,8.56
2024-02-02T22:14:12.809Z,8.57
2024-02-02T22:16:40.708Z,8.57
2024-02-02T22:19:08.695Z,8.59
2024-02-02T22:21:37.066Z,8.61
2024-02-02T22:24:05.797Z,8.62
2024-02-02T22:26:33.721Z,8.63
2024-02-02T22:29:03.013Z,8.65
2024-02-02T22:31:30.902Z,8.66
2024-02-02T22:33:58.890Z,8.68
2024-02-02T22:36:26.899Z,8.69
2024-02-02T22:38:56.024Z,8.71
2024-02-02T22:41:32.918Z,8.71
2024-02-02T22:44:04.047Z,8.73
2024-02-02T22:46:31.810Z,8.74
2024-02-02T22:49:00.073Z,8.75
2024-02-02T22:51:28.205Z,8.76
2024-02-02T22:53:56.174Z,8.77
2024-02-02T22:56:24.153Z,8.77
2024-02-02T22:58:52.069Z,8.77
2024-02-02T23:01:21.546Z,8.75
2024-02-02T23:03:49.665Z,8.75
2024-02-02T23:06:17.974Z,8.74
2024-02-02T23:08:45.975Z,8.73
2024-02-02T23:11:15.729Z,8.73
2024-02-02T23:13:43.708Z,8.73
2024-02-02T23:16:12.308Z,8.73
2024-02-02T23:18:41.883Z,8.75
2024-02-02T23:21:09.931Z,8.73
2024-02-02T23:23:37.874Z,8.76
2024-02-02T23:26:06.024Z,8.76
2024-02-02T23:28:33.952Z,8.76
2024-02-02T23:31:02.536Z,8.78
2024-02-02T23:33:30.796Z,8.77
2024-02-02T23:36:00.220Z,8.78
2024-02-02T23:38:28.137Z,8.79
2024-02-02T23:40:56.878Z,8.79
2024-02-02T23:43:25.004Z,8.76
2024-02-02T23:45:53.057Z,8.77
2024-02-02T23:48:21.155Z,8.77
2024-02-02T23:50:49.121Z,8.77
2024-02-02T23:53:18.399Z,8.77
2024-02-02T23:55:46.353Z,8.78
2024-02-02T23:58:14.289Z,8.77
